sensor_id;sensor_type;location;lat;lon;timestamp;P1;durP1;ratioP1;P2;durP2;ratioP2
7375;SDS011;3728;42.266;24.944;2022-12-16T00:01:40;27.50;;;18.13;;
7375;SDS011;3728;42.266;24.944;2022-12-16T00:04:07;25.53;;;17.57;;
7375;SDS011;3728;42.266;24.944;2022-12-16T00:06:35;29.00;;;17.43;;
7375;SDS011;3728;42.266;24.944;2022-12-16T00:09:03;25.80;;;17.17;;
7375;SDS011;3728;42.266;24.944;2022-12-16T00:11:30;24.20;;;16.53;;
7375;SDS011;3728;42.266;24.944;2022-12-16T00:13:58;23.83;;;16.87;;
7375;SDS011;3728;42.266;24.944;2022-12-16T00:16:26;26.50;;;17.80;;
7375;SDS011;3728;42.266;24.944;2022-12-16T00:18:54;29.17;;;20.20;;
7375;SDS011;3728;42.266;24.944;2022-12-16T00:21:21;33.23;;;20.33;;
7375;SDS011;3728;42.266;24.944;2022-12-16T00:23:54;31.30;;;18.43;;
7375;SDS011;3728;42.266;24.944;2022-12-16T00:26:23;27.97;;;17.10;;
7375;SDS011;3728;42.266;24.944;2022-12-16T00:28:51;27.03;;;18.33;;
7375;SDS011;3728;42.266;24.944;2022-12-16T00:31:20;30.03;;;20.30;;
7375;SDS011;3728;42.266;24.944;2022-12-16T00:33:47;32.40;;;21.47;;
7375;SDS011;3728;42.266;24.944;2022-12-16T00:36:15;24.13;;;16.30;;
7375;SDS011;3728;42.266;24.944;2022-12-16T00:38:43;24.47;;;17.87;;
7375;SDS011;3728;42.266;24.944;2022-12-16T00:41:10;25.53;;;16.80;;
7375;SDS011;3728;42.266;24.944;2022-12-16T00:43:38;26.83;;;16.87;;
7375;SDS011;3728;42.266;24.944;2022-12-16T00:46:05;27.93;;;16.50;;
7375;SDS011;3728;42.266;24.944;2022-12-16T00:48:33;26.70;;;17.03;;
7375;SDS011;3728;42.266;24.944;2022-12-16T00:51:01;25.30;;;16.30;;
7375;SDS011;3728;42.266;24.944;2022-12-16T00:53:28;45.67;;;26.03;;
7375;SDS011;3728;42.266;24.944;2022-12-16T00:56:00;75.67;;;36.30;;
7375;SDS011;3728;42.266;24.944;2022-12-16T00:58:39;47.40;;;27.33;;
7375;SDS011;3728;42.266;24.944;2022-12-16T01:01:07;53.87;;;30.03;;
7375;SDS011;3728;42.266;24.944;2022-12-16T01:03:35;53.50;;;30.93;;
7375;SDS011;3728;42.266;24.944;2022-12-16T01:06:11;54.60;;;29.80;;
7375;SDS011;3728;42.266;24.944;2022-12-16T01:08:43;61.10;;;32.37;;
7375;SDS011;3728;42.266;24.944;2022-12-16T01:11:15;57.63;;;31.87;;
7375;SDS011;3728;42.266;24.944;2022-12-16T01:13:45;60.83;;;31.37;;
7375;SDS011;3728;42.266;24.944;2022-12-16T01:16:17;59.63;;;31.57;;
7375;SDS011;3728;42.266;24.944;2022-12-16T01:18:45;57.37;;;29.43;;
7375;SDS011;3728;42.266;24.944;2022-12-16T01:21:13;55.90;;;31.23;;
7375;SDS011;3728;42.266;24.944;2022-12-16T01:23:41;52.27;;;30.03;;
7375;SDS011;3728;42.266;24.944;2022-12-16T01:26:09;50.10;;;30.90;;
7375;SDS011;3728;42.266;24.944;2022-12-16T01:28:43;48.17;;;28.70;;
7375;SDS011;3728;42.266;24.944;2022-12-16T01:31:13;51.97;;;29.33;;
7375;SDS011;3728;42.266;24.944;2022-12-16T01:33:43;48.43;;;29.10;;
7375;SDS011;3728;42.266;24.944;2022-12-16T01:36:11;44.03;;;27.87;;
7375;SDS011;3728;42.266;24.944;2022-12-16T01:38:40;43.50;;;27.83;;
7375;SDS011;3728;42.266;24.944;2022-12-16T01:41:10;45.77;;;26.17;;
7375;SDS011;3728;42.266;24.944;2022-12-16T01:43:39;41.17;;;25.73;;
7375;SDS011;3728;42.266;24.944;2022-12-16T01:46:19;47.53;;;26.10;;
7375;SDS011;3728;42.266;24.944;2022-12-16T01:48:54;47.47;;;26.17;;
7375;SDS011;3728;42.266;24.944;2022-12-16T01:51:35;46.83;;;25.70;;
7375;SDS011;3728;42.266;24.944;2022-12-16T01:54:23;44.00;;;25.93;;
7375;SDS011;3728;42.266;24.944;2022-12-16T01:57:07;48.20;;;24.57;;
7375;SDS011;3728;42.266;24.944;2022-12-16T01:59:40;44.97;;;26.97;;
7375;SDS011;3728;42.266;24.944;2022-12-16T02:02:11;44.60;;;27.40;;
7375;SDS011;3728;42.266;24.944;2022-12-16T02:04:40;36.83;;;25.00;;
7375;SDS011;3728;42.266;24.944;2022-12-16T02:07:26;42.53;;;25.17;;
7375;SDS011;3728;42.266;24.944;2022-12-16T02:09:53;40.40;;;25.33;;
7375;SDS011;3728;42.266;24.944;2022-12-16T02:12:31;37.90;;;24.00;;
7375;SDS011;3728;42.266;24.944;2022-12-16T02:39:19;31.17;;;20.47;;
7375;SDS011;3728;42.266;24.944;2022-12-16T02:41:56;29.30;;;19.83;;
7375;SDS011;3728;42.266;24.944;2022-12-16T02:44:35;30.57;;;20.00;;
7375;SDS011;3728;42.266;24.944;2022-12-16T02:47:09;28.67;;;19.60;;
7375;SDS011;3728;42.266;24.944;2022-12-16T02:49:47;32.33;;;19.67;;
7375;SDS011;3728;42.266;24.944;2022-12-16T02:52:18;27.27;;;17.67;;
7375;SDS011;3728;42.266;24.944;2022-12-16T02:54:52;20.00;;;13.83;;
7375;SDS011;3728;42.266;24.944;2022-12-16T03:00:29;19.90;;;15.40;;
7375;SDS011;3728;42.266;24.944;2022-12-16T03:03:23;25.90;;;16.60;;
7375;SDS011;3728;42.266;24.944;2022-12-16T03:06:08;23.33;;;15.97;;
7375;SDS011;3728;42.266;24.944;2022-12-16T03:08:39;32.10;;;20.70;;
7375;SDS011;3728;42.266;24.944;2022-12-16T03:11:13;24.03;;;16.50;;
7375;SDS011;3728;42.266;24.944;2022-12-16T03:13:42;36.33;;;23.40;;
7375;SDS011;3728;42.266;24.944;2022-12-16T03:16:18;38.93;;;26.80;;
7375;SDS011;3728;42.266;24.944;2022-12-16T03:18:51;50.73;;;30.80;;
7375;SDS011;3728;42.266;24.944;2022-12-16T03:21:24;41.73;;;25.40;;
7375;SDS011;3728;42.266;24.944;2022-12-16T03:24:00;29.07;;;20.10;;
7375;SDS011;3728;42.266;24.944;2022-12-16T03:29:02;30.97;;;20.37;;
7375;SDS011;3728;42.266;24.944;2022-12-16T03:34:30;29.83;;;17.93;;
7375;SDS011;3728;42.266;24.944;2022-12-16T03:37:10;27.07;;;17.47;;
7375;SDS011;3728;42.266;24.944;2022-12-16T03:39:41;25.40;;;18.33;;
7375;SDS011;3728;42.266;24.944;2022-12-16T03:42:13;27.73;;;18.63;;
7375;SDS011;3728;42.266;24.944;2022-12-16T03:44:42;24.67;;;19.03;;
7375;SDS011;3728;42.266;24.944;2022-12-16T03:47:12;27.23;;;19.27;;
7375;SDS011;3728;42.266;24.944;2022-12-16T03:49:46;25.30;;;18.13;;
7375;SDS011;3728;42.266;24.944;2022-12-16T03:52:14;22.73;;;17.60;;
7375;SDS011;3728;42.266;24.944;2022-12-16T03:54:42;26.53;;;18.20;;
7375;SDS011;3728;42.266;24.944;2022-12-16T03:57:09;27.23;;;18.30;;
7375;SDS011;3728;42.266;24.944;2022-12-16T03:59:41;23.13;;;16.70;;
7375;SDS011;3728;42.266;24.944;2022-12-16T04:02:08;21.90;;;15.53;;
7375;SDS011;3728;42.266;24.944;2022-12-16T04:04:36;25.07;;;15.83;;
7375;SDS011;3728;42.266;24.944;2022-12-16T04:07:04;25.10;;;17.00;;
7375;SDS011;3728;42.266;24.944;2022-12-16T04:09:47;28.37;;;17.53;;
7375;SDS011;3728;42.266;24.944;2022-12-16T04:12:16;22.90;;;16.57;;
7375;SDS011;3728;42.266;24.944;2022-12-16T04:15:03;29.90;;;18.23;;
7375;SDS011;3728;42.266;24.944;2022-12-16T04:17:50;27.73;;;17.70;;
7375;SDS011;3728;42.266;24.944;2022-12-16T04:20:38;25.97;;;17.73;;
7375;SDS011;3728;42.266;24.944;2022-12-16T04:23:29;24.97;;;18.07;;
7375;SDS011;3728;42.266;24.944;2022-12-16T04:26:17;30.63;;;22.10;;
7375;SDS011;3728;42.266;24.944;2022-12-16T04:28:46;35.20;;;25.80;;
7375;SDS011;3728;42.266;24.944;2022-12-16T04:31:13;38.63;;;28.60;;
7375;SDS011;3728;42.266;24.944;2022-12-16T04:33:41;35.07;;;26.27;;
7375;SDS011;3728;42.266;24.944;2022-12-16T04:36:27;38.73;;;26.77;;
7375;SDS011;3728;42.266;24.944;2022-12-16T04:39:13;149.20;;;75.23;;
7375;SDS011;3728;42.266;24.944;2022-12-16T04:41:59;237.97;;;115.50;;
7375;SDS011;3728;42.266;24.944;2022-12-16T04:44:45;105.70;;;56.30;;
7375;SDS011;3728;42.266;24.944;2022-12-16T04:47:31;32.93;;;23.07;;
7375;SDS011;3728;42.266;24.944;2022-12-16T04:50:22;46.63;;;32.20;;
7375;SDS011;3728;42.266;24.944;2022-12-16T04:53:09;48.23;;;32.83;;
7375;SDS011;3728;42.266;24.944;2022-12-16T04:55:56;21.27;;;15.50;;
7375;SDS011;3728;42.266;24.944;2022-12-16T04:58:41;16.33;;;11.40;;
7375;SDS011;3728;42.266;24.944;2022-12-16T05:01:27;34.23;;;22.43;;
7375;SDS011;3728;42.266;24.944;2022-12-16T05:04:14;41.60;;;24.30;;
7375;SDS011;3728;42.266;24.944;2022-12-16T05:07:00;23.43;;;14.13;;
7375;SDS011;3728;42.266;24.944;2022-12-16T05:09:46;36.20;;;20.50;;
7375;SDS011;3728;42.266;24.944;2022-12-16T05:12:32;23.23;;;15.87;;
7375;SDS011;3728;42.266;24.944;2022-12-16T05:15:18;20.20;;;14.27;;
7375;SDS011;3728;42.266;24.944;2022-12-16T05:18:08;19.70;;;14.20;;
7375;SDS011;3728;42.266;24.944;2022-12-16T05:20:56;19.20;;;12.73;;
7375;SDS011;3728;42.266;24.944;2022-12-16T05:23:44;18.53;;;13.37;;
7375;SDS011;3728;42.266;24.944;2022-12-16T05:26:31;16.87;;;13.60;;
7375;SDS011;3728;42.266;24.944;2022-12-16T05:29:17;18.67;;;13.87;;
7375;SDS011;3728;42.266;24.944;2022-12-16T05:32:03;19.43;;;14.10;;
7375;SDS011;3728;42.266;24.944;2022-12-16T05:34:50;19.60;;;14.20;;
7375;SDS011;3728;42.266;24.944;2022-12-16T05:37:36;27.73;;;17.67;;
7375;SDS011;3728;42.266;24.944;2022-12-16T05:40:22;25.40;;;15.90;;
7375;SDS011;3728;42.266;24.944;2022-12-16T05:43:08;25.67;;;15.50;;
7375;SDS011;3728;42.266;24.944;2022-12-16T05:45:56;28.00;;;17.43;;
7375;SDS011;3728;42.266;24.944;2022-12-16T05:48:42;32.40;;;19.57;;
7375;SDS011;3728;42.266;24.944;2022-12-16T05:51:28;32.73;;;22.07;;
7375;SDS011;3728;42.266;24.944;2022-12-16T05:54:14;34.60;;;25.17;;
7375;SDS011;3728;42.266;24.944;2022-12-16T05:57:00;47.70;;;30.73;;
7375;SDS011;3728;42.266;24.944;2022-12-16T05:59:46;47.50;;;32.33;;
7375;SDS011;3728;42.266;24.944;2022-12-16T06:02:36;40.70;;;27.57;;
7375;SDS011;3728;42.266;24.944;2022-12-16T06:05:23;34.30;;;25.63;;
7375;SDS011;3728;42.266;24.944;2022-12-16T06:08:09;28.90;;;20.40;;
7375;SDS011;3728;42.266;24.944;2022-12-16T06:10:55;34.33;;;23.73;;
7375;SDS011;3728;42.266;24.944;2022-12-16T06:13:58;36.83;;;25.93;;
7375;SDS011;3728;42.266;24.944;2022-12-16T06:16:46;39.67;;;27.57;;
7375;SDS011;3728;42.266;24.944;2022-12-16T06:19:32;38.03;;;26.00;;
7375;SDS011;3728;42.266;24.944;2022-12-16T06:22:18;32.77;;;24.10;;
7375;SDS011;3728;42.266;24.944;2022-12-16T06:25:04;44.03;;;30.97;;
7375;SDS011;3728;42.266;24.944;2022-12-16T06:27:51;48.93;;;32.83;;
7375;SDS011;3728;42.266;24.944;2022-12-16T06:30:38;60.93;;;43.60;;
7375;SDS011;3728;42.266;24.944;2022-12-16T06:33:25;64.03;;;36.60;;
7375;SDS011;3728;42.266;24.944;2022-12-16T06:36:14;61.50;;;36.90;;
7375;SDS011;3728;42.266;24.944;2022-12-16T06:39:01;57.07;;;38.27;;
7375;SDS011;3728;42.266;24.944;2022-12-16T06:41:47;46.13;;;31.23;;
7375;SDS011;3728;42.266;24.944;2022-12-16T06:44:33;37.60;;;27.27;;
7375;SDS011;3728;42.266;24.944;2022-12-16T06:47:19;41.50;;;27.07;;
7375;SDS011;3728;42.266;24.944;2022-12-16T06:50:05;43.93;;;29.70;;
7375;SDS011;3728;42.266;24.944;2022-12-16T06:52:52;51.53;;;35.00;;
7375;SDS011;3728;42.266;24.944;2022-12-16T06:55:38;55.23;;;37.87;;
7375;SDS011;3728;42.266;24.944;2022-12-16T06:58:25;44.90;;;30.43;;
7375;SDS011;3728;42.266;24.944;2022-12-16T07:01:10;45.43;;;31.23;;
7375;SDS011;3728;42.266;24.944;2022-12-16T07:03:57;42.10;;;30.50;;
7375;SDS011;3728;42.266;24.944;2022-12-16T07:06:43;27.57;;;20.27;;
7375;SDS011;3728;42.266;24.944;2022-12-16T07:09:29;28.83;;;19.07;;
7375;SDS011;3728;42.266;24.944;2022-12-16T07:12:15;57.53;;;37.43;;
7375;SDS011;3728;42.266;24.944;2022-12-16T07:15:01;36.60;;;26.13;;
7375;SDS011;3728;42.266;24.944;2022-12-16T07:17:48;39.70;;;27.50;;
7375;SDS011;3728;42.266;24.944;2022-12-16T07:20:34;30.47;;;20.67;;
7375;SDS011;3728;42.266;24.944;2022-12-16T07:23:21;28.13;;;19.63;;
7375;SDS011;3728;42.266;24.944;2022-12-16T07:26:07;26.43;;;19.43;;
7375;SDS011;3728;42.266;24.944;2022-12-16T07:28:53;25.20;;;19.00;;
7375;SDS011;3728;42.266;24.944;2022-12-16T07:31:39;27.87;;;19.83;;
7375;SDS011;3728;42.266;24.944;2022-12-16T07:34:25;33.37;;;20.93;;
7375;SDS011;3728;42.266;24.944;2022-12-16T07:37:15;28.93;;;20.30;;
7375;SDS011;3728;42.266;24.944;2022-12-16T07:40:02;33.37;;;21.87;;
7375;SDS011;3728;42.266;24.944;2022-12-16T07:42:49;40.17;;;23.07;;
7375;SDS011;3728;42.266;24.944;2022-12-16T07:45:35;35.27;;;25.43;;
7375;SDS011;3728;42.266;24.944;2022-12-16T07:48:21;29.50;;;21.70;;
7375;SDS011;3728;42.266;24.944;2022-12-16T07:51:13;30.07;;;19.43;;
7375;SDS011;3728;42.266;24.944;2022-12-16T07:53:59;30.70;;;19.23;;
7375;SDS011;3728;42.266;24.944;2022-12-16T07:56:45;35.07;;;20.87;;
7375;SDS011;3728;42.266;24.944;2022-12-16T07:59:31;27.27;;;19.93;;
7375;SDS011;3728;42.266;24.944;2022-12-16T08:02:17;35.57;;;23.77;;
7375;SDS011;3728;42.266;24.944;2022-12-16T08:05:03;33.27;;;21.77;;
7375;SDS011;3728;42.266;24.944;2022-12-16T08:07:49;34.07;;;21.63;;
7375;SDS011;3728;42.266;24.944;2022-12-16T08:10:35;33.00;;;21.47;;
7375;SDS011;3728;42.266;24.944;2022-12-16T08:13:21;32.40;;;20.70;;
7375;SDS011;3728;42.266;24.944;2022-12-16T08:16:07;30.10;;;19.97;;
7375;SDS011;3728;42.266;24.944;2022-12-16T08:18:54;28.30;;;19.83;;
7375;SDS011;3728;42.266;24.944;2022-12-16T08:21:41;33.47;;;22.50;;
7375;SDS011;3728;42.266;24.944;2022-12-16T08:24:27;29.10;;;19.40;;
7375;SDS011;3728;42.266;24.944;2022-12-16T08:27:33;27.40;;;19.73;;
7375;SDS011;3728;42.266;24.944;2022-12-16T08:30:21;28.10;;;20.73;;
7375;SDS011;3728;42.266;24.944;2022-12-16T08:33:07;26.90;;;18.43;;
7375;SDS011;3728;42.266;24.944;2022-12-16T08:35:55;27.90;;;19.87;;
7375;SDS011;3728;42.266;24.944;2022-12-16T08:38:59;30.57;;;21.10;;
7375;SDS011;3728;42.266;24.944;2022-12-16T08:41:45;31.13;;;21.33;;
7375;SDS011;3728;42.266;24.944;2022-12-16T08:44:31;31.30;;;22.43;;
7375;SDS011;3728;42.266;24.944;2022-12-16T08:47:18;29.93;;;22.57;;
7375;SDS011;3728;42.266;24.944;2022-12-16T08:50:04;34.60;;;23.63;;
7375;SDS011;3728;42.266;24.944;2022-12-16T08:52:51;35.40;;;23.97;;
7375;SDS011;3728;42.266;24.944;2022-12-16T08:55:36;36.33;;;24.13;;
7375;SDS011;3728;42.266;24.944;2022-12-16T08:58:42;33.13;;;23.33;;
7375;SDS011;3728;42.266;24.944;2022-12-16T09:01:28;34.90;;;22.47;;
7375;SDS011;3728;42.266;24.944;2022-12-16T09:04:16;30.97;;;22.53;;
7375;SDS011;3728;42.266;24.944;2022-12-16T09:07:02;33.63;;;25.37;;
7375;SDS011;3728;42.266;24.944;2022-12-16T09:09:48;36.67;;;25.20;;
7375;SDS011;3728;42.266;24.944;2022-12-16T09:12:34;39.83;;;25.67;;
7375;SDS011;3728;42.266;24.944;2022-12-16T09:15:21;36.93;;;25.27;;
7375;SDS011;3728;42.266;24.944;2022-12-16T09:18:07;38.37;;;27.73;;
7375;SDS011;3728;42.266;24.944;2022-12-16T09:20:53;41.10;;;26.13;;
7375;SDS011;3728;42.266;24.944;2022-12-16T09:23:39;41.83;;;29.70;;
7375;SDS011;3728;42.266;24.944;2022-12-16T09:26:25;43.57;;;28.43;;
7375;SDS011;3728;42.266;24.944;2022-12-16T09:29:12;48.87;;;34.83;;
7375;SDS011;3728;42.266;24.944;2022-12-16T09:31:58;35.23;;;25.87;;
7375;SDS011;3728;42.266;24.944;2022-12-16T09:34:45;35.23;;;25.67;;
7375;SDS011;3728;42.266;24.944;2022-12-16T09:37:43;33.57;;;25.03;;
7375;SDS011;3728;42.266;24.944;2022-12-16T09:40:31;40.70;;;25.43;;
7375;SDS011;3728;42.266;24.944;2022-12-16T09:49:49;33.63;;;23.57;;
7375;SDS011;3728;42.266;24.944;2022-12-16T09:52:47;35.80;;;23.10;;
7375;SDS011;3728;42.266;24.944;2022-12-16T09:55:45;35.23;;;23.37;;
7375;SDS011;3728;42.266;24.944;2022-12-16T09:58:35;34.80;;;22.47;;
7375;SDS011;3728;42.266;24.944;2022-12-16T10:01:35;37.13;;;21.80;;
7375;SDS011;3728;42.266;24.944;2022-12-16T10:04:23;38.30;;;22.37;;
7375;SDS011;3728;42.266;24.944;2022-12-16T10:07:17;29.20;;;21.50;;
7375;SDS011;3728;42.266;24.944;2022-12-16T10:23:21;46.57;;;29.37;;
7375;SDS011;3728;42.266;24.944;2022-12-16T10:26:27;43.47;;;27.37;;
7375;SDS011;3728;42.266;24.944;2022-12-16T10:29:21;42.93;;;25.20;;
7375;SDS011;3728;42.266;24.944;2022-12-16T10:38:46;45.10;;;26.87;;
7375;SDS011;3728;42.266;24.944;2022-12-16T10:42:27;44.70;;;26.43;;
7375;SDS011;3728;42.266;24.944;2022-12-16T10:45:40;45.13;;;26.30;;
7375;SDS011;3728;42.266;24.944;2022-12-16T10:48:45;45.03;;;26.87;;
7375;SDS011;3728;42.266;24.944;2022-12-16T10:51:44;50.80;;;28.83;;
7375;SDS011;3728;42.266;24.944;2022-12-16T10:54:55;50.10;;;29.20;;
7375;SDS011;3728;42.266;24.944;2022-12-16T11:01:25;54.07;;;34.43;;
7375;SDS011;3728;42.266;24.944;2022-12-16T11:04:33;57.70;;;32.47;;
7375;SDS011;3728;42.266;24.944;2022-12-16T11:10:37;51.90;;;29.87;;
7375;SDS011;3728;42.266;24.944;2022-12-16T11:13:33;50.07;;;30.40;;
7375;SDS011;3728;42.266;24.944;2022-12-16T11:16:22;62.70;;;32.43;;
7375;SDS011;3728;42.266;24.944;2022-12-16T11:19:21;57.07;;;31.97;;
7375;SDS011;3728;42.266;24.944;2022-12-16T11:22:15;53.87;;;32.20;;
7375;SDS011;3728;42.266;24.944;2022-12-16T11:28:16;62.17;;;33.10;;
7375;SDS011;3728;42.266;24.944;2022-12-16T11:31:06;63.20;;;36.97;;
7375;SDS011;3728;42.266;24.944;2022-12-16T11:33:58;58.83;;;33.47;;
7375;SDS011;3728;42.266;24.944;2022-12-16T11:36:47;82.37;;;48.03;;
7375;SDS011;3728;42.266;24.944;2022-12-16T11:39:51;65.43;;;39.57;;
7375;SDS011;3728;42.266;24.944;2022-12-16T11:42:37;57.90;;;32.93;;
7375;SDS011;3728;42.266;24.944;2022-12-16T11:45:35;64.67;;;35.47;;
7375;SDS011;3728;42.266;24.944;2022-12-16T11:51:38;59.90;;;36.07;;
7375;SDS011;3728;42.266;24.944;2022-12-16T11:55:00;75.73;;;37.83;;
7375;SDS011;3728;42.266;24.944;2022-12-16T12:01:17;83.07;;;45.43;;
7375;SDS011;3728;42.266;24.944;2022-12-16T12:04:13;67.10;;;38.40;;
7375;SDS011;3728;42.266;24.944;2022-12-16T12:07:02;57.50;;;33.37;;
7375;SDS011;3728;42.266;24.944;2022-12-16T12:09:58;81.83;;;44.03;;
7375;SDS011;3728;42.266;24.944;2022-12-16T12:16:17;59.00;;;34.13;;
7375;SDS011;3728;42.266;24.944;2022-12-16T12:19:18;76.17;;;42.00;;
7375;SDS011;3728;42.266;24.944;2022-12-16T12:22:21;59.37;;;32.63;;
7375;SDS011;3728;42.266;24.944;2022-12-16T12:25:40;54.23;;;31.47;;
7375;SDS011;3728;42.266;24.944;2022-12-16T12:38:06;70.47;;;37.30;;
7375;SDS011;3728;42.266;24.944;2022-12-16T12:47:52;86.30;;;44.43;;
7375;SDS011;3728;42.266;24.944;2022-12-16T12:50:55;57.23;;;33.07;;
7375;SDS011;3728;42.266;24.944;2022-12-16T12:56:59;73.57;;;40.07;;
7375;SDS011;3728;42.266;24.944;2022-12-16T12:59:56;87.97;;;44.13;;
7375;SDS011;3728;42.266;24.944;2022-12-16T13:05:58;55.10;;;31.17;;
7375;SDS011;3728;42.266;24.944;2022-12-16T13:08:54;68.03;;;39.00;;
7375;SDS011;3728;42.266;24.944;2022-12-16T13:15:05;57.90;;;31.40;;
7375;SDS011;3728;42.266;24.944;2022-12-16T13:18:25;51.70;;;33.97;;
7375;SDS011;3728;42.266;24.944;2022-12-16T13:27:14;61.30;;;34.07;;
7375;SDS011;3728;42.266;24.944;2022-12-16T13:32:57;64.90;;;38.77;;
7375;SDS011;3728;42.266;24.944;2022-12-16T13:36:04;47.53;;;28.30;;
7375;SDS011;3728;42.266;24.944;2022-12-16T13:38:53;42.07;;;25.53;;
7375;SDS011;3728;42.266;24.944;2022-12-16T13:53:39;48.57;;;30.10;;
7375;SDS011;3728;42.266;24.944;2022-12-16T13:56:36;56.03;;;34.30;;
7375;SDS011;3728;42.266;24.944;2022-12-16T13:59:31;54.40;;;32.40;;
7375;SDS011;3728;42.266;24.944;2022-12-16T14:02:31;65.67;;;35.43;;
7375;SDS011;3728;42.266;24.944;2022-12-16T14:05:27;78.00;;;42.17;;
7375;SDS011;3728;42.266;24.944;2022-12-16T14:08:20;72.93;;;41.03;;
7375;SDS011;3728;42.266;24.944;2022-12-16T14:11:21;50.70;;;29.20;;
7375;SDS011;3728;42.266;24.944;2022-12-16T14:14:45;53.73;;;31.33;;
7375;SDS011;3728;42.266;24.944;2022-12-16T14:17:44;41.67;;;23.70;;
7375;SDS011;3728;42.266;24.944;2022-12-16T14:21:07;39.13;;;23.20;;
7375;SDS011;3728;42.266;24.944;2022-12-16T14:27:17;76.87;;;47.07;;
7375;SDS011;3728;42.266;24.944;2022-12-16T14:30:13;139.77;;;70.90;;
7375;SDS011;3728;42.266;24.944;2022-12-16T14:39:10;105.53;;;53.77;;
7375;SDS011;3728;42.266;24.944;2022-12-16T14:42:28;55.03;;;32.20;;
7375;SDS011;3728;42.266;24.944;2022-12-16T14:48:13;62.57;;;35.27;;
7375;SDS011;3728;42.266;24.944;2022-12-16T14:51:33;61.90;;;38.57;;
7375;SDS011;3728;42.266;24.944;2022-12-16T14:57:25;75.80;;;41.57;;
7375;SDS011;3728;42.266;24.944;2022-12-16T15:00:15;114.23;;;55.10;;
7375;SDS011;3728;42.266;24.944;2022-12-16T15:06:16;201.43;;;84.43;;
7375;SDS011;3728;42.266;24.944;2022-12-16T15:09:22;162.70;;;79.17;;
7375;SDS011;3728;42.266;24.944;2022-12-16T15:12:17;128.80;;;65.43;;
7375;SDS011;3728;42.266;24.944;2022-12-16T15:15:08;116.43;;;65.47;;
7375;SDS011;3728;42.266;24.944;2022-12-16T15:18:26;112.40;;;56.83;;
7375;SDS011;3728;42.266;24.944;2022-12-16T15:21:26;63.37;;;37.77;;
7375;SDS011;3728;42.266;24.944;2022-12-16T15:24:17;70.93;;;41.83;;
7375;SDS011;3728;42.266;24.944;2022-12-16T15:33:23;62.90;;;39.20;;
7375;SDS011;3728;42.266;24.944;2022-12-16T15:42:21;69.20;;;41.73;;
7375;SDS011;3728;42.266;24.944;2022-12-16T15:45:21;78.17;;;47.83;;
7375;SDS011;3728;42.266;24.944;2022-12-16T15:54:19;189.87;;;107.03;;
7375;SDS011;3728;42.266;24.944;2022-12-16T16:00:23;69.33;;;37.10;;
7375;SDS011;3728;42.266;24.944;2022-12-16T16:03:15;69.30;;;36.40;;
7375;SDS011;3728;42.266;24.944;2022-12-16T16:06:14;73.27;;;38.87;;
7375;SDS011;3728;42.266;24.944;2022-12-16T16:09:27;67.33;;;36.33;;
7375;SDS011;3728;42.266;24.944;2022-12-16T16:12:17;70.17;;;35.30;;
7375;SDS011;3728;42.266;24.944;2022-12-16T16:15:05;77.63;;;36.87;;
7375;SDS011;3728;42.266;24.944;2022-12-16T16:17:56;71.23;;;35.97;;
7375;SDS011;3728;42.266;24.944;2022-12-16T16:20:45;94.43;;;46.63;;
7375;SDS011;3728;42.266;24.944;2022-12-16T16:23:32;81.87;;;41.93;;
7375;SDS011;3728;42.266;24.944;2022-12-16T16:26:21;72.67;;;36.50;;
7375;SDS011;3728;42.266;24.944;2022-12-16T16:29:36;86.67;;;42.17;;
7375;SDS011;3728;42.266;24.944;2022-12-16T16:32:25;102.33;;;49.80;;
7375;SDS011;3728;42.266;24.944;2022-12-16T16:35:12;82.87;;;39.40;;
7375;SDS011;3728;42.266;24.944;2022-12-16T16:37:58;85.27;;;41.90;;
7375;SDS011;3728;42.266;24.944;2022-12-16T16:40:47;77.20;;;38.53;;
7375;SDS011;3728;42.266;24.944;2022-12-16T16:43:33;90.93;;;41.90;;
7375;SDS011;3728;42.266;24.944;2022-12-16T16:49:21;91.57;;;45.87;;
7375;SDS011;3728;42.266;24.944;2022-12-16T16:52:32;98.87;;;48.23;;
7375;SDS011;3728;42.266;24.944;2022-12-16T16:55:26;91.20;;;42.93;;
7375;SDS011;3728;42.266;24.944;2022-12-16T16:58:19;100.80;;;48.07;;
7375;SDS011;3728;42.266;24.944;2022-12-16T17:01:12;85.57;;;42.97;;
7375;SDS011;3728;42.266;24.944;2022-12-16T17:04:03;88.10;;;45.67;;
7375;SDS011;3728;42.266;24.944;2022-12-16T17:06:49;88.47;;;43.60;;
7375;SDS011;3728;42.266;24.944;2022-12-16T17:09:38;88.97;;;45.17;;
7375;SDS011;3728;42.266;24.944;2022-12-16T17:12:28;83.30;;;42.73;;
7375;SDS011;3728;42.266;24.944;2022-12-16T17:15:23;256.03;;;117.50;;
7375;SDS011;3728;42.266;24.944;2022-12-16T17:18:19;479.53;;;237.20;;
7375;SDS011;3728;42.266;24.944;2022-12-16T17:21:13;346.30;;;158.97;;
7375;SDS011;3728;42.266;24.944;2022-12-16T17:23:59;171.40;;;79.23;;
7375;SDS011;3728;42.266;24.944;2022-12-16T17:26:57;357.70;;;147.87;;
7375;SDS011;3728;42.266;24.944;2022-12-16T17:29:46;367.20;;;149.30;;
7375;SDS011;3728;42.266;24.944;2022-12-16T17:32:35;334.43;;;142.80;;
7375;SDS011;3728;42.266;24.944;2022-12-16T17:35:25;235.10;;;104.77;;
7375;SDS011;3728;42.266;24.944;2022-12-16T17:38:23;145.30;;;61.80;;
7375;SDS011;3728;42.266;24.944;2022-12-16T17:41:10;127.67;;;60.90;;
7375;SDS011;3728;42.266;24.944;2022-12-16T17:43:57;78.20;;;38.73;;
7375;SDS011;3728;42.266;24.944;2022-12-16T17:46:48;75.60;;;38.10;;
7375;SDS011;3728;42.266;24.944;2022-12-16T17:49:36;70.73;;;37.00;;
7375;SDS011;3728;42.266;24.944;2022-12-16T17:52:23;69.80;;;38.20;;
7375;SDS011;3728;42.266;24.944;2022-12-16T17:55:10;89.17;;;42.17;;
7375;SDS011;3728;42.266;24.944;2022-12-16T17:57:59;72.90;;;39.67;;
7375;SDS011;3728;42.266;24.944;2022-12-16T18:00:49;74.87;;;38.10;;
7375;SDS011;3728;42.266;24.944;2022-12-16T18:03:37;75.73;;;38.70;;
7375;SDS011;3728;42.266;24.944;2022-12-16T18:06:25;70.57;;;37.93;;
7375;SDS011;3728;42.266;24.944;2022-12-16T18:09:14;74.23;;;39.13;;
7375;SDS011;3728;42.266;24.944;2022-12-16T18:12:08;75.40;;;39.50;;
7375;SDS011;3728;42.266;24.944;2022-12-16T18:15:15;77.17;;;38.13;;
7375;SDS011;3728;42.266;24.944;2022-12-16T18:18:02;107.93;;;45.43;;
7375;SDS011;3728;42.266;24.944;2022-12-16T18:20:51;77.90;;;37.03;;
7375;SDS011;3728;42.266;24.944;2022-12-16T18:23:41;78.70;;;40.03;;
7375;SDS011;3728;42.266;24.944;2022-12-16T18:26:28;79.07;;;39.90;;
7375;SDS011;3728;42.266;24.944;2022-12-16T18:29:17;71.90;;;37.87;;
7375;SDS011;3728;42.266;24.944;2022-12-16T18:32:06;77.37;;;41.17;;
7375;SDS011;3728;42.266;24.944;2022-12-16T18:35:01;87.70;;;46.23;;
7375;SDS011;3728;42.266;24.944;2022-12-16T18:37:49;94.93;;;47.33;;
7375;SDS011;3728;42.266;24.944;2022-12-16T18:40:41;79.83;;;38.83;;
7375;SDS011;3728;42.266;24.944;2022-12-16T18:43:36;71.30;;;35.90;;
7375;SDS011;3728;42.266;24.944;2022-12-16T18:46:22;86.97;;;45.13;;
7375;SDS011;3728;42.266;24.944;2022-12-16T18:49:12;125.97;;;59.73;;
7375;SDS011;3728;42.266;24.944;2022-12-16T18:52:02;118.97;;;58.07;;
7375;SDS011;3728;42.266;24.944;2022-12-16T18:54:50;84.80;;;41.63;;
7375;SDS011;3728;42.266;24.944;2022-12-16T18:57:40;151.50;;;82.53;;
7375;SDS011;3728;42.266;24.944;2022-12-16T19:00:42;104.27;;;58.57;;
7375;SDS011;3728;42.266;24.944;2022-12-16T19:03:29;84.37;;;45.87;;
7375;SDS011;3728;42.266;24.944;2022-12-16T19:06:15;108.17;;;54.47;;
7375;SDS011;3728;42.266;24.944;2022-12-16T19:09:02;121.47;;;66.60;;
7375;SDS011;3728;42.266;24.944;2022-12-16T19:11:51;161.40;;;92.87;;
7375;SDS011;3728;42.266;24.944;2022-12-16T19:14:39;81.37;;;44.23;;
7375;SDS011;3728;42.266;24.944;2022-12-16T19:17:29;70.67;;;36.67;;